AF6225 / F-GRHP 7700 Squawk Report (21st of November, 2021)

Aircraft A319 Reg No. F-GRHP Age 21 years old
Model A319 Jet engines 2 First flight 29-09-00
Registered 20-10-00 Rollout 09-00 Delivered 20-10-00
Construction No. 1344 Line No. N/A Series 111
ADSHEX 3944EF Airline name Air France Owner Orix Lunabase Corporation
Airfield based Paris-Charles de Gaulle~Val-d'Oise~F First tracked N/A

Flight history for F-GRHP

Route Flight No Date Playback
Pau Pyrenees (PUF) - Orly (ORY) AF7463 2022-01-20 20:44:00
Orly (ORY) - Pau Pyrenees (PUF) AF7462 2022-01-20 18:26:00
Rivesaltes (PGF) - Orly (ORY) AF7467 2022-01-17 11:14:00
Orly (ORY) - Rivesaltes (PGF) AF7466 2022-01-17 08:49:00
Pau Pyrenees (PUF) - Orly (ORY) AF7451 2022-01-17 06:42:00
Orly (ORY) - Pau Pyrenees (PUF) AF7458 2022-01-16 20:24:00
Saint Catherine (CLY) - Orly (ORY) AF7571 2022-01-16 19:31:00
Orly (ORY) - Saint Catherine (CLY) AF7570 2022-01-16 15:00:00
Provence (MRS) - Orly (ORY) AF6011 2022-01-16 11:44:00
Orly (ORY) - Provence (MRS) AF6008 2022-01-16 10:46:00
Provence (MRS) - Orly (ORY) AF6027 2022-01-15 19:41:00
Houari Boumediene (ALG) - Provence (MRS) AF1491 2022-01-15 15:54:00
Charles De Gaulle (CDG) - Houari Boumediene (ALG) AF1384 2022-01-15 14:57:00
Orly (ORY) - Provence (MRS) AF6008 2022-01-15 11:46:00
Blagnac (TLS) - Orly (ORY) AF6147 2022-01-14 20:01:00
Orly (ORY) - Blagnac (TLS) AF6140 2022-01-14 18:11:00
Cote D Azur (NCE) - Orly (ORY) AF6225 2022-01-14 15:56:00
Orly (ORY) - Cote D Azur (NCE) AF6218 2022-01-14 14:34:00
Blagnac (TLS) - Orly (ORY) AF6119 2022-01-14 12:28:00
Orly (ORY) - Blagnac (TLS) AF6110 2022-01-14 09:12:00
Time Lat Lon Altitude Heading Speed Vertical Rate
2021-11-21 15:01:56 GMT 43.657906 7.207670 0 348 0 0
2021-11-21 15:01:52 GMT 43.657898 7.207669 0 348 0 0
2021-11-21 15:01:41 GMT 43.657906 7.207670 0 348 0 0
2021-11-21 15:01:30 GMT 43.657875 7.207669 0 348 4 0
2021-11-21 15:01:21 GMT 43.657761 7.207702 0 348 4 0
2021-11-21 15:01:11 GMT 43.657608 7.207734 0 351 6 0
2021-11-21 15:01:00 GMT 43.657333 7.207782 0 329 6 0
2021-11-21 15:00:50 GMT 43.657162 7.207910 0 272 7 0
2021-11-21 15:00:40 GMT 43.657234 7.208290 0 219 12 0
2021-11-21 15:00:30 GMT 43.657780 7.209027 0 225 22 0
2021-11-21 15:00:21 GMT 43.658482 7.210007 0 222 27 0
2021-11-21 15:00:09 GMT 43.659451 7.211327 0 225 28 0
2021-11-21 15:00:00 GMT 43.660229 7.212397 0 225 29 0
2021-11-21 14:59:50 GMT 43.661064 7.213571 0 225 25 0
2021-11-21 14:59:39 GMT 43.661865 7.214648 0 225 20 0
2021-11-21 14:59:26 GMT 43.662579 7.215614 0 225 14 0
2021-11-21 14:59:12 GMT 43.662868 7.216563 0 309 15 0
2021-11-21 14:59:09 GMT 43.662735 7.216772 0 315 15 0
2021-11-21 14:59:00 GMT 43.662289 7.217411 0 323 15 0
2021-11-21 14:58:49 GMT 43.661648 7.217511 0 42 17 0
2021-11-21 14:58:39 GMT 43.660820 7.216415 0 45 43 0
2021-11-21 14:58:29 GMT 43.659084 7.214025 50 45 80 0
2021-11-21 14:58:19 GMT 43.655991 7.209712 50 44 122 256
2021-11-21 14:58:08 GMT 43.651520 7.203631 150 45 127 -768
2021-11-21 14:57:57 GMT 43.647125 7.197578 275 44 130 -960
2021-11-21 14:57:48 GMT 43.643005 7.192021 400 45 129 -512
2021-11-21 14:57:37 GMT 43.638252 7.185386 500 45 128 -640
2021-11-21 14:57:27 GMT 43.634171 7.179757 625 45 130 -704
2021-11-21 14:57:16 GMT 43.629456 7.173306 750 45 134 -768
2021-11-21 14:57:08 GMT 43.625778 7.168252 850 44 135 -704
2021-11-21 14:56:58 GMT 43.621449 7.162367 975 45 140 -640
2021-11-21 14:56:50 GMT 43.617691 7.157210 1,075 45 144 -640
2021-11-21 14:56:40 GMT 43.613117 7.150988 1,175 45 148 -768
2021-11-21 14:56:30 GMT 43.608032 7.143988 1,300 44 156 -704
2021-11-21 14:56:20 GMT 43.602127 7.135876 1,425 45 181 -576
2021-11-21 14:54:46 GMT 43.541889 7.053157 2,950 45 201 -640
2021-11-21 14:54:39 GMT 43.537628 7.047282 3,025 45 198 -512
2021-11-21 14:54:33 GMT 43.534256 7.042629 3,050 43 195 -64
2021-11-21 14:54:28 GMT 43.531036 7.038276 3,075 43 195 0
2021-11-21 14:54:18 GMT 43.524399 7.029525 3,100 43 192 0
2021-11-21 14:54:15 GMT 43.522705 7.027354 3,100 42 185 128
2021-11-21 14:54:09 GMT 43.518288 7.021899 3,075 39 177 0
2021-11-21 14:54:05 GMT 43.516434 7.019880 3,075 36 176 -64
2021-11-21 14:53:58 GMT 43.511211 7.015032 3,075 29 176 0
2021-11-21 14:53:47 GMT 43.502701 7.010555 3,100 24 175 -128
2021-11-21 14:53:43 GMT 43.500183 7.010044 3,075 8 174 128
2021-11-21 14:53:38 GMT 43.495972 7.010235 3,075 344 174 0
2021-11-21 14:53:35 GMT 43.493225 7.011449 3,075 329 176 0
2021-11-21 14:53:29 GMT 43.489056 7.015555 3,050 311 180 0
2021-11-21 14:53:25 GMT 43.486912 7.019610 3,050 301 183 128
2021-11-21 14:53:18 GMT 43.485237 7.026280 3,075 281 186 -64
2021-11-21 14:53:15 GMT 43.484940 7.029653 3,075 265 184 0
2021-11-21 14:53:07 GMT 43.485703 7.038574 3,075 252 185 -64
2021-11-21 14:53:02 GMT 43.487518 7.044656 3,075 243 185 0
2021-11-21 14:52:38 GMT 43.495197 7.071141 3,075 255 192 128
2021-11-21 14:52:13 GMT 43.498352 7.103875 3,075 263 208 0
2021-11-21 14:52:07 GMT 43.499107 7.111882 3,075 263 208 0
2021-11-21 14:51:57 GMT 43.500458 7.125288 3,075 263 208 0
2021-11-21 14:51:47 GMT 43.501648 7.138239 3,075 263 209 0
2021-11-21 14:51:37 GMT 43.502972 7.151184 3,075 261 208 64
2021-11-21 14:51:27 GMT 43.505161 7.164067 3,075 247 208 -64
2021-11-21 14:51:16 GMT 43.509888 7.176883 3,075 241 208 -64
2021-11-21 14:51:13 GMT 43.511166 7.180023 3,075 241 208 0
2021-11-21 14:51:06 GMT 43.514511 7.188252 3,075 241 208 64
2021-11-21 14:50:56 GMT 43.519501 7.200361 3,075 241 208 -64
2021-11-21 14:50:46 GMT 43.524078 7.211630 3,075 241 208 -64
2021-11-21 14:50:44 GMT 43.525452 7.214952 3,075 241 208 -64
2021-11-21 14:50:33 GMT 43.530121 7.226449 3,075 241 208 0
2021-11-21 14:50:22 GMT 43.535339 7.239160 3,075 241 207 -64
2021-11-21 14:50:15 GMT 43.538540 7.247118 3,075 241 208 0
2021-11-21 14:50:05 GMT 43.543381 7.259151 3,075 241 208 -64
2021-11-21 14:50:02 GMT 43.544544 7.261897 3,075 242 204 0
2021-11-21 14:49:56 GMT 43.547569 7.269483 3,100 241 205 -128
2021-11-21 14:49:52 GMT 43.549664 7.274649 3,100 242 204 0
2021-11-21 14:49:43 GMT 43.553329 7.284510 3,100 260 204 -832
2021-11-21 14:49:36 GMT 43.555531 7.293352 3,150 260 204 -832
2021-11-21 14:49:32 GMT 43.556168 7.298435 3,225 263 204 -1152
2021-11-21 14:49:25 GMT 43.556854 7.306483 3,350 263 204 -1344
2021-11-21 14:49:21 GMT 43.557533 7.314017 3,450 263 204 -1216
2021-11-21 14:49:15 GMT 43.558182 7.320152 3,550 261 205 -1152
2021-11-21 14:49:12 GMT 43.558594 7.323474 3,600 259 206 -1280
2021-11-21 14:49:05 GMT 43.560604 7.332328 3,750 244 205 -1152
2021-11-21 14:49:02 GMT 43.562027 7.335801 3,825 236 205 -1024
2021-11-21 14:48:54 GMT 43.567108 7.343211 3,950 218 207 -960
2021-11-21 14:48:51 GMT 43.569122 7.345127 4,000 209 208 -512
2021-11-21 14:48:42 GMT 43.578094 7.349470 4,075 185 213 0
2021-11-21 14:48:31 GMT 43.588348 7.348384 4,075 162 218 0
2021-11-21 14:48:21 GMT 43.597801 7.342725 4,075 146 221 64
2021-11-21 14:48:14 GMT 43.603775 7.337015 4,050 143 222 192
2021-11-21 14:48:11 GMT 43.606293 7.334460 4,000 143 224 384
2021-11-21 14:48:01 GMT 43.615494 7.325262 3,925 144 223 1088
2021-11-21 14:47:54 GMT 43.620609 7.320295 3,800 144 223 1408
2021-11-21 14:47:49 GMT 43.631195 7.310060 3,150 145 224 1984
2021-11-21 14:47:43 GMT 43.631195 7.310060 3,400 144 219 1664
2021-11-21 14:47:33 GMT 43.638252 7.302508 3,175 140 208 1088
2021-11-21 14:47:24 GMT 43.644444 7.295380 3,025 140 194 1280
2021-11-21 14:47:21 GMT 43.647240 7.292175 2,925 140 191 1024
2021-11-21 14:47:11 GMT 43.653477 7.285047 2,725 140 178 1280
2021-11-21 14:47:00 GMT 43.660126 7.277484 2,500 140 169 1408
2021-11-21 14:46:49 GMT 43.666603 7.270333 2,150 142 160 2240
2021-11-21 14:46:40 GMT 43.671936 7.263496 1,800 124 165 1984
2021-11-21 14:46:30 GMT 43.674683 7.255001 1,475 99 166 2176
2021-11-21 14:46:20 GMT 43.674088 7.243120 1,075 66 166 2112
2021-11-21 14:46:09 GMT 43.669582 7.233843 725 44 163 1984
2021-11-21 14:46:00 GMT 43.665020 7.227631 425 44 159 1600
2021-11-21 14:45:50 GMT 43.659988 7.220732 0 45 165
2021-11-21 14:45:39 GMT 43.654594 7.213293 0 45 135
2021-11-21 14:45:28 GMT 43.650696 7.207941 0 45 94
2021-11-21 14:45:20 GMT 43.648533 7.204971 0 45 55
2021-11-21 14:45:09 GMT 43.647285 7.203222 0 42 17
2021-11-21 14:44:58 GMT 43.646996 7.202421 0 118 13
2021-11-21 14:44:50 GMT 43.647354 7.201937 0 160 12
2021-11-21 14:44:39 GMT 43.647842 7.201881 0 202 12
2021-11-21 14:44:29 GMT 43.648201 7.202257 0 227 9
2021-11-21 14:44:15 GMT 43.648579 7.202784 0 225 13
2021-11-21 14:44:08 GMT 43.648903 7.203238 0 225 19
2021-11-21 14:43:51 GMT 43.649952 7.204652 0 225 21
2021-11-21 14:43:47 GMT 43.650215 7.204955 0 202 20
2021-11-21 14:43:36 GMT 43.651138 7.205053 0 154 20
2021-11-21 14:43:29 GMT 43.651661 7.204514 0 135 19
2021-11-21 14:43:18 GMT 43.652229 7.203758 0 132 18
2021-11-21 14:43:02 GMT 43.653137 7.202928 0 196 15
2021-11-21 14:42:58 GMT 43.653408 7.203042 0 225 15
2021-11-21 14:42:48 GMT 43.653873 7.203696 0 225 17
2021-11-21 14:42:37 GMT 43.654507 7.204524 0 225 20
2021-11-21 14:42:20 GMT 43.655525 7.205945 0 225 19
2021-11-21 14:42:15 GMT 43.655823 7.206345 0 225 18
2021-11-21 14:42:04 GMT 43.656399 7.207129 0 227 18
2021-11-21 14:41:57 GMT 43.656784 7.207670 0 225 17
2021-11-21 14:41:45 GMT 43.657364 7.208454 0 213 16

Making use of Plane Finder data

You are free to use the raw flight data, aircraft information and images provided in this report for your own purposes provided the data is correctly attributed to Plane Finder. We ask that you please credit Plane Finder and link to planefinder.net in close proximity to the content.

Optionally one of the following logos (no smaller then 150x24px) can be used and must link to planefinder.net

Embedding the Plane Finder map

You are welcome to embed the Plane Finder playback map on your website to offer visitors a more interactive experience. We suggest using the following HTML code:

<iframe src="//planefinder.net/data/report/AF6225-F-GRHP-7700-squawk-2021-11-21/map" width="800" height="600" seamless="seamless"></iframe>

Where our data comes from

Plane Finder has a global network of data feeds and antenna radars that receive data broadcast directly from aircraft. The primary technologies used are ADS-B and MLAT. We also show feeds from the FAA and a FLARM glider feed.

Click here to find out more about the Plane Finder network.

How we collect our data